Time;durP1;ratioP1;P1;durP2;ratioP2;P2;SDS_P1;SDS_P2;PMS_P1;PMS_P2;Temp;Humidity;BMP_temperature;BMP_pressure;BME280_temperature;BME280_humidity;BME280_pressure;Samples;Min_cycle;Max_cycle;Signal;HPM_P1;HPM_P2
2021/07/02 00:01:24;;;;;;;23.35;9.85;;;;;;;17.92;68.40;99836.06;5053599;28;20060;-86
2021/07/02 00:03:51;;;;;;;23.17;8.65;;;;;;;17.91;68.68;99828.19;5054789;28;20399;-88
2021/07/02 00:06:18;;;;;;;22.08;8.65;;;;;;;17.88;68.53;99823.97;5054012;28;20048;-88
2021/07/02 00:08:45;;;;;;;20.65;8.07;;;;;;;17.88;68.39;99833.78;5054845;28;20053;-86
2021/07/02 00:11:11;;;;;;;22.10;8.48;;;;;;;17.85;68.48;99834.88;5054655;28;20052;-87
2021/07/02 00:13:38;;;;;;;23.98;8.95;;;;;;;17.83;68.43;99829.69;5054792;28;20052;-85
2021/07/02 00:16:05;;;;;;;20.77;8.80;;;;;;;17.82;68.66;99822.69;5054305;28;20087;-87
2021/07/02 00:18:32;;;;;;;17.83;8.45;;;;;;;17.81;68.48;99829.00;5054632;28;20404;-87
2021/07/02 00:20:59;;;;;;;18.98;8.55;;;;;;;17.81;68.49;99830.81;5056397;28;20060;-86
2021/07/02 00:23:25;;;;;;;18.83;8.85;;;;;;;17.80;68.43;99823.78;5053166;28;20053;-87
2021/07/02 00:25:52;;;;;;;25.02;9.40;;;;;;;17.79;68.34;99828.25;5053078;28;20049;-86
2021/07/02 00:28:19;;;;;;;22.05;8.82;;;;;;;17.78;68.47;99821.25;5054316;28;20053;-88
2021/07/02 00:30:45;;;;;;;19.45;8.65;;;;;;;17.77;68.30;99822.25;5054288;28;20060;-87
2021/07/02 00:33:12;;;;;;;19.55;8.77;;;;;;;17.74;68.39;99824.31;5054141;28;20060;-87
2021/07/02 00:35:41;;;;;;;20.10;9.30;;;;;;;17.72;68.24;99819.16;5054284;28;20053;-86
2021/07/02 00:38:08;;;;;;;23.88;9.18;;;;;;;17.70;68.09;99816.63;5054032;28;20052;-87
2021/07/02 00:40:35;;;;;;;24.60;10.07;;;;;;;17.66;68.23;99809.88;5053057;28;20052;-87
2021/07/02 00:43:03;;;;;;;22.33;8.57;;;;;;;17.63;68.00;99811.94;5052650;28;20897;-87
2021/07/02 00:45:29;;;;;;;28.55;9.32;;;;;;;17.59;68.19;99803.38;5053887;28;20445;-87
2021/07/02 00:47:56;;;;;;;20.73;9.82;;;;;;;17.55;68.36;99802.81;5052492;28;20053;-87
2021/07/02 00:50:22;;;;;;;22.08;9.10;;;;;;;17.52;68.12;99808.38;5054131;28;20068;-86
2021/07/02 00:52:50;;;;;;;21.08;9.15;;;;;;;17.48;68.51;99804.28;5052509;28;20057;-85
2021/07/02 00:55:17;;;;;;;19.38;8.43;;;;;;;17.47;68.57;99801.75;5053651;28;20053;-84
2021/07/02 00:57:45;;;;;;;21.00;8.95;;;;;;;17.44;68.64;99800.22;5053680;28;20107;-85
2021/07/02 01:00:12;;;;;;;24.10;9.32;;;;;;;17.43;68.73;99806.50;5053664;28;20451;-86
2021/07/02 01:02:42;;;;;;;24.30;9.00;;;;;;;17.42;68.52;99802.16;5053807;28;20079;-86
2021/07/02 01:05:16;;;;;;;17.45;9.10;;;;;;;17.43;68.66;99803.84;5053222;28;20049;-87
2021/07/02 01:07:44;;;;;;;21.23;9.10;;;;;;;17.44;68.95;99802.88;5053873;28;20056;-87
2021/07/02 01:10:16;;;;;;;19.20;9.13;;;;;;;17.42;69.08;99802.16;5053273;28;20049;-87
2021/07/02 01:12:43;;;;;;;23.60;9.02;;;;;;;17.45;68.86;99807.22;5052336;28;20063;-86
2021/07/02 01:15:24;;;;;;;22.63;9.32;;;;;;;17.41;69.06;99797.81;5052827;28;20052;-85
2021/07/02 01:17:51;;;;;;;24.17;9.43;;;;;;;17.45;68.64;99799.22;5053211;28;20048;-85
2021/07/02 01:20:19;;;;;;;22.95;8.57;;;;;;;17.45;68.82;99796.56;5051997;28;20640;-86
2021/07/02 01:22:45;;;;;;;31.23;8.95;;;;;;;17.42;69.15;99795.00;5053509;28;20049;-87
2021/07/02 01:25:12;;;;;;;26.77;9.40;;;;;;;17.41;68.99;99793.34;5053222;28;20052;-86
2021/07/02 01:27:39;;;;;;;21.33;8.90;;;;;;;17.41;69.03;99796.00;5052950;28;20053;-85
2021/07/02 01:30:09;;;;;;;24.10;9.63;;;;;;;17.40;69.01;99812.94;5053261;28;20110;-89
2021/07/02 01:32:36;;;;;;;19.20;9.32;;;;;;;17.40;68.68;99804.97;5052228;28;20052;-88
2021/07/02 01:35:03;;;;;;;21.10;9.45;;;;;;;17.40;68.83;99807.63;5053192;28;20045;-89
2021/07/02 01:37:30;;;;;;;26.42;9.27;;;;;;;17.40;69.16;99812.09;5051700;28;20441;-86
2021/07/02 01:39:57;;;;;;;24.88;10.25;;;;;;;17.38;69.05;99808.72;5053187;28;20060;-86
2021/07/02 01:42:23;;;;;;;31.17;11.57;;;;;;;17.38;68.78;99806.06;5051234;28;20052;-86
2021/07/02 01:44:50;;;;;;;21.17;10.52;;;;;;;17.38;69.25;99806.06;5052392;28;20110;-86
2021/07/02 01:47:16;;;;;;;21.23;10.43;;;;;;;17.37;69.17;99802.56;5051584;28;20045;-85
2021/07/02 01:49:43;;;;;;;23.90;11.23;;;;;;;17.37;69.27;99807.00;5052972;28;20053;-86
2021/07/02 01:52:10;;;;;;;22.05;11.25;;;;;;;17.38;69.36;99803.41;5053088;28;20049;-87
2021/07/02 01:54:36;;;;;;;24.70;11.40;;;;;;;17.39;69.18;99813.06;5052584;28;20053;-86
2021/07/02 01:57:06;;;;;;;21.63;10.80;;;;;;;17.38;69.51;99814.88;5052719;28;20053;-87
2021/07/02 01:59:33;;;;;;;23.85;12.32;;;;;;;17.40;69.30;99804.09;5053008;28;20098;-86
2021/07/02 02:01:59;;;;;;;24.77;12.70;;;;;;;17.41;69.41;99795.13;5052501;28;20045;-86
2021/07/02 02:04:26;;;;;;;22.23;11.80;;;;;;;17.42;69.39;99802.16;5052185;28;20098;-86
2021/07/02 02:06:52;;;;;;;20.63;11.55;;;;;;;17.43;69.43;99804.69;5051804;28;20049;-85
2021/07/02 02:09:19;;;;;;;23.73;12.02;;;;;;;17.44;69.34;99810.84;5055786;28;20048;-86
2021/07/02 02:11:46;;;;;;;21.45;11.88;;;;;;;17.46;69.29;99798.28;5071530;28;20864;-86
2021/07/02 02:14:12;;;;;;;28.70;14.52;;;;;;;17.47;69.47;99805.28;5072128;28;20057;-87
2021/07/02 02:16:41;;;;;;;23.90;13.27;;;;;;;17.46;69.20;99803.59;5072301;28;20379;-87
2021/07/02 02:19:08;;;;;;;24.10;13.68;;;;;;;17.45;69.34;99802.75;5072543;28;20055;-85
2021/07/02 02:21:34;;;;;;;30.42;13.07;;;;;;;17.45;69.20;99801.88;5072002;28;20110;-87
2021/07/02 02:24:01;;;;;;;22.35;13.25;;;;;;;17.46;69.41;99800.94;5059991;28;20095;-86
2021/07/02 02:26:27;;;;;;;20.73;13.45;;;;;;;17.46;69.33;99800.94;5051921;28;20494;-87
2021/07/02 02:28:54;;;;;;;20.02;12.88;;;;;;;17.47;69.11;99807.09;5051868;28;20095;-87
2021/07/02 02:31:21;;;;;;;20.50;13.68;;;;;;;17.46;69.13;99803.59;5034104;28;20131;-87
2021/07/02 02:33:48;;;;;;;25.98;13.55;;;;;;;17.46;69.25;99795.63;5051988;28;20081;-88
2021/07/02 02:36:15;;;;;;;26.23;13.98;;;;;;;17.44;69.11;99801.06;5050556;28;20048;-87
2021/07/02 02:38:41;;;;;;;28.73;13.57;;;;;;;17.44;69.30;99794.88;5070080;28;20071;-85
2021/07/02 02:41:08;;;;;;;24.75;13.77;;;;;;;17.44;69.04;99792.22;5072046;28;20079;-85
2021/07/02 02:43:35;;;;;;;21.67;13.60;;;;;;;17.44;69.14;99797.53;5072098;28;20456;-89
2021/07/02 02:46:02;;;;;;;25.63;13.20;;;;;;;17.41;69.29;99795.13;5070863;28;20048;-89
2021/07/02 02:48:29;;;;;;;28.85;13.43;;;;;;;17.41;69.19;99792.47;5072443;28;20061;-85
2021/07/02 02:50:56;;;;;;;28.00;14.05;;;;;;;17.39;69.27;99792.63;5056655;28;20103;-86
2021/07/02 02:53:22;;;;;;;25.63;13.45;;;;;;;17.40;69.63;99802.31;5050722;28;20103;-87
2021/07/02 02:55:49;;;;;;;26.60;14.43;;;;;;;17.39;69.36;99800.63;5050934;28;20537;-86
2021/07/02 02:58:15;;;;;;;27.77;14.02;;;;;;;17.40;69.25;99799.63;5051555;28;20552;-86
2021/07/02 03:00:42;;;;;;;27.73;14.88;;;;;;;17.39;69.32;99792.63;5050244;28;20415;-87
2021/07/02 03:03:09;;;;;;;26.77;14.68;;;;;;;17.40;68.97;99790.81;5051486;28;20507;-87
2021/07/02 03:05:36;;;;;;;27.83;13.90;;;;;;;17.40;69.28;99791.66;5052990;28;20045;-88
2021/07/02 03:08:03;;;;;;;25.83;14.10;;;;;;;17.41;69.42;99789.81;5051495;28;20053;-89
2021/07/02 03:10:30;;;;;;;26.27;13.60;;;;;;;17.40;69.40;99793.47;5051648;28;20082;-87
2021/07/02 03:12:58;;;;;;;30.08;15.27;;;;;;;17.40;69.21;99790.81;5052098;28;20057;-88
2021/07/02 03:15:25;;;;;;;28.40;13.98;;;;;;;17.41;69.14;99795.13;5051147;28;20548;-87
2021/07/02 03:17:52;;;;;;;21.55;13.40;;;;;;;17.41;69.34;99789.81;5070685;28;20482;-87
2021/07/02 03:20:19;;;;;;;25.50;14.63;;;;;;;17.43;69.31;99795.88;5074264;28;20066;-87
2021/07/02 03:22:45;;;;;;;29.88;14.82;;;;;;;17.41;69.43;99790.66;5074334;28;20064;-86
2021/07/02 03:25:12;;;;;;;32.05;14.27;;;;;;;17.43;69.06;99796.69;5073988;28;20049;-88
2021/07/02 03:27:39;;;;;;;24.92;13.13;;;;;;;17.44;69.46;99800.22;5054912;28;20048;-88
2021/07/02 03:30:08;;;;;;;28.02;14.02;;;;;;;17.43;69.47;99802.00;5055362;28;20064;-88
2021/07/02 03:32:35;;;;;;;28.88;14.13;;;;;;;17.44;69.39;99801.06;5055584;28;20056;-88
2021/07/02 03:35:05;;;;;;;26.35;14.15;;;;;;;17.45;69.26;99801.88;5053892;28;20127;-88
2021/07/02 03:37:31;;;;;;;29.52;15.02;;;;;;;17.46;69.05;99803.59;5073412;28;20059;-90
2021/07/02 03:39:58;;;;;;;29.80;15.63;;;;;;;17.45;69.19;99810.72;5073950;28;20509;-88
2021/07/02 03:42:25;;;;;;;30.13;14.40;;;;;;;17.45;69.18;99804.56;5075125;28;20508;-89
2021/07/02 03:44:52;;;;;;;25.77;14.32;;;;;;;17.45;69.05;99801.88;5073868;28;20567;-88
2021/07/02 03:47:18;;;;;;;26.08;14.38;;;;;;;17.45;69.19;99804.56;5057159;28;20049;-89
2021/07/02 03:49:45;;;;;;;26.42;14.45;;;;;;;17.45;69.28;99804.56;5053992;28;20099;-86
2021/07/02 03:52:11;;;;;;;23.35;14.90;;;;;;;17.45;69.20;99800.09;5054043;28;20057;-88
2021/07/02 03:54:38;;;;;;;27.63;15.98;;;;;;;17.44;68.99;99806.38;5053733;28;20456;-86
2021/07/02 03:57:11;;;;;;;33.70;15.50;;;;;;;17.44;69.22;99817.03;5068693;28;20048;-85
2021/07/02 03:59:51;;;;;;;29.30;14.80;;;;;;;17.38;69.51;99814.03;5075422;28;20048;-85
2021/07/02 04:02:19;;;;;;;29.52;15.30;;;;;;;17.42;69.19;99815.47;5073326;28;20485;-86
2021/07/02 04:04:46;;;;;;;26.38;14.60;;;;;;;17.40;69.14;99820.94;5073502;28;20056;-86
2021/07/02 04:07:13;;;;;;;24.13;14.65;;;;;;;17.41;69.17;99835.91;5059576;28;20572;-87
2021/07/02 04:09:40;;;;;;;24.42;14.63;;;;;;;17.40;68.94;99828.06;5053456;28;20639;-87
2021/07/02 04:12:08;;;;;;;25.15;15.05;;;;;;;17.40;69.03;99836.88;5053515;28;20110;-87
2021/07/02 04:14:35;;;;;;;32.10;15.15;;;;;;;17.40;69.15;99836.03;5054289;28;20052;-85
2021/07/02 04:17:02;;;;;;;29.13;15.13;;;;;;;17.40;69.35;99841.34;5067515;28;20462;-87
2021/07/02 04:19:29;;;;;;;25.00;14.77;;;;;;;17.40;69.38;99844.00;5074262;28;20506;-87
2021/07/02 04:21:56;;;;;;;27.88;15.98;;;;;;;17.40;69.29;99836.88;5074632;28;20118;-87
2021/07/02 04:24:22;;;;;;;24.90;15.15;;;;;;;17.41;69.20;99840.38;5074141;28;20497;-87
2021/07/02 04:27:09;;;;;;;24.85;15.25;;;;;;;17.42;69.28;99842.09;5070225;28;20398;-90
2021/07/02 04:29:36;;;;;;;26.02;15.13;;;;;;;17.44;69.31;99842.78;5072211;28;20056;-88
2021/07/02 04:32:03;;;;;;;27.23;12.80;;;;;;;17.44;69.30;99843.63;5073310;28;20048;-88
2021/07/02 04:34:29;;;;;;;30.08;16.52;;;;;;;17.44;68.99;99851.63;5072904;28;20125;-88
2021/07/02 04:36:56;;;;;;;27.75;15.48;;;;;;;17.45;69.03;99847.13;5060634;28;20060;-88
2021/07/02 04:39:23;;;;;;;29.33;15.18;;;;;;;17.45;69.40;99853.31;5053143;28;20056;-88
2021/07/02 04:41:50;;;;;;;33.45;16.23;;;;;;;17.47;69.26;99854.97;5052725;28;20536;-88
2021/07/02 04:44:16;;;;;;;23.95;15.10;;;;;;;17.45;68.85;99855.09;5052590;28;20053;-88
2021/07/02 04:46:43;;;;;;;31.50;15.25;;;;;;;17.47;68.98;99854.97;5062569;28;20052;-88
2021/07/02 04:49:10;;;;;;;28.58;16.83;;;;;;;17.48;69.01;99851.34;5073067;28;20052;-87
2021/07/02 04:51:36;;;;;;;30.55;15.60;;;;;;;17.48;69.21;99854.00;5072808;28;20057;-86
2021/07/02 04:54:03;;;;;;;30.50;16.02;;;;;;;17.50;69.17;99866.22;5073569;28;20048;-85
2021/07/02 04:56:30;;;;;;;25.75;16.05;;;;;;;17.50;69.20;99863.56;5064199;28;20044;-87
2021/07/02 04:58:57;;;;;;;30.15;16.15;;;;;;;17.52;69.13;99860.75;5053481;28;20580;-89
2021/07/02 05:01:24;;;;;;;28.75;16.67;;;;;;;17.53;69.19;99860.63;5052552;28;20064;-88
2021/07/02 05:03:51;;;;;;;30.67;15.73;;;;;;;17.55;69.12;99856.03;5054007;28;20053;-89
2021/07/02 05:06:18;;;;;;;25.08;14.65;;;;;;;17.57;69.45;99863.88;5060311;28;20048;-86
2021/07/02 05:08:45;;;;;;;32.38;17.63;;;;;;;17.58;69.02;99863.72;5073519;28;20472;-85
2021/07/02 05:11:12;;;;;;;28.17;16.77;;;;;;;17.61;69.07;99864.47;5071988;28;20559;-86
2021/07/02 05:13:40;;;;;;;31.05;17.25;;;;;;;17.63;68.88;99859.84;5073557;28;20053;-88
2021/07/02 05:16:08;;;;;;;28.27;15.07;;;;;;;17.63;69.17;99871.34;5067954;28;20053;-88
2021/07/02 05:18:35;;;;;;;24.77;16.77;;;;;;;17.65;68.99;99866.72;5052178;28;20056;-88
2021/07/02 05:21:02;;;;;;;29.95;17.95;;;;;;;17.66;69.06;99868.44;5052270;28;20049;-87
2021/07/02 05:23:28;;;;;;;33.55;17.17;;;;;;;17.67;69.23;99875.44;5053033;28;20053;-88
2021/07/02 05:25:55;;;;;;;29.63;16.83;;;;;;;17.69;69.09;99872.66;5054547;28;20469;-88
2021/07/02 05:28:22;;;;;;;33.88;18.02;;;;;;;17.73;69.18;99878.53;5073366;28;20060;-88
2021/07/02 05:30:48;;;;;;;30.67;16.48;;;;;;;17.75;69.06;99881.94;5072070;28;20063;-89
2021/07/02 05:33:15;;;;;;;25.95;15.75;;;;;;;17.78;68.94;99878.97;5073246;28;20101;-86
2021/07/02 05:35:42;;;;;;;31.92;18.27;;;;;;;17.80;69.23;99877.03;5070136;28;20056;-88
2021/07/02 05:38:08;;;;;;;34.42;17.52;;;;;;;17.82;68.92;99877.75;5053302;28;20049;-87
2021/07/02 05:40:35;;;;;;;28.83;16.63;;;;;;;17.84;68.95;99881.13;5051766;28;20494;-89
2021/07/02 05:43:02;;;;;;;28.98;17.90;;;;;;;17.87;68.93;99885.34;5051916;28;20194;-87
2021/07/02 05:45:28;;;;;;;32.35;19.15;;;;;;;17.88;68.89;99890.53;5051614;28;20060;-86
2021/07/02 05:48:01;;;;;;;30.00;18.27;;;;;;;17.91;68.85;99884.94;5051993;28;20510;-86
2021/07/02 05:50:29;;;;;;;32.90;17.30;;;;;;;17.94;68.81;99884.69;5053283;28;20085;-87
2021/07/02 05:52:56;;;;;;;28.58;17.83;;;;;;;17.97;69.04;99887.09;5051668;28;20049;-87
2021/07/02 05:55:24;;;;;;;26.38;17.23;;;;;;;18.02;68.85;99891.19;5052494;28;20049;-88
2021/07/02 05:57:51;;;;;;;30.42;18.42;;;;;;;18.05;68.85;99881.09;5069750;28;20056;-88
2021/07/02 06:00:18;;;;;;;37.03;19.33;;;;;;;18.08;68.92;99880.88;5056978;28;20068;-87
2021/07/02 06:02:45;;;;;;;28.15;18.60;;;;;;;18.13;68.97;99885.78;5050159;28;20060;-85
2021/07/02 06:05:12;;;;;;;26.95;18.42;;;;;;;18.17;68.85;99889.03;5049888;28;20072;-88
2021/07/02 06:07:46;;;;;;;30.90;18.17;;;;;;;18.18;68.71;99888.91;5065441;28;20048;-87
2021/07/02 06:10:13;;;;;;;28.83;19.55;;;;;;;18.26;68.62;99893.56;5070615;28;20048;-87
2021/07/02 06:12:41;;;;;;;27.15;18.08;;;;;;;18.30;68.39;99894.13;5071446;28;20048;-87
2021/07/02 06:15:08;;;;;;;27.98;18.98;;;;;;;18.33;68.38;99886.72;5072206;28;20464;-88
2021/07/02 06:17:35;;;;;;;26.63;18.33;;;;;;;18.37;68.14;99884.63;5055672;28;20048;-87
2021/07/02 06:20:03;;;;;;;30.83;17.90;;;;;;;18.41;67.90;99891.34;5051442;28;20067;-87
2021/07/02 06:22:29;;;;;;;30.55;18.35;;;;;;;18.45;67.90;99899.91;5051207;28;20045;-90
2021/07/02 06:24:56;;;;;;;27.25;18.25;;;;;;;18.46;67.56;99898.94;5050402;28;20061;-86
2021/07/02 06:27:23;;;;;;;27.92;18.70;;;;;;;18.46;67.58;99897.13;5063724;28;20052;-85
2021/07/02 06:29:49;;;;;;;30.98;18.15;;;;;;;18.47;67.67;99893.47;5071842;28;20490;-87
2021/07/02 06:32:16;;;;;;;21.48;17.00;;;;;;;18.48;67.55;99897.00;5071033;28;20056;-88
2021/07/02 06:34:43;;;;;;;29.25;18.08;;;;;;;18.51;67.72;99899.41;5071794;28;20048;-88
2021/07/02 06:37:10;;;;;;;29.55;18.75;;;;;;;18.55;67.78;99898.16;5061110;28;20575;-87
2021/07/02 06:39:36;;;;;;;28.83;18.80;;;;;;;18.60;68.21;99895.91;5050870;28;20083;-87
2021/07/02 06:42:04;;;;;;;29.52;18.35;;;;;;;18.66;68.10;99891.84;5051029;28;20053;-89
2021/07/02 06:44:31;;;;;;;31.35;19.50;;;;;;;18.73;67.98;99895.66;5051662;28;20057;-90
2021/07/02 06:46:58;;;;;;;28.63;19.45;;;;;;;18.81;67.69;99894.13;5059191;28;20543;-86
2021/07/02 06:49:25;;;;;;;26.00;18.00;;;;;;;18.87;67.40;99888.22;5065689;28;20055;-87
2021/07/02 06:51:51;;;;;;;25.55;17.33;;;;;;;18.95;67.53;99885.69;5050047;28;20139;-86
2021/07/02 06:54:18;;;;;;;24.20;18.05;;;;;;;19.02;67.45;99883.31;5055214;28;20102;-86
2021/07/02 06:57:03;;;;;;;27.25;19.08;;;;;;;19.10;67.08;99893.34;5055085;28;20491;-89
2021/07/02 06:59:32;;;;;;;25.48;18.52;;;;;;;19.17;67.01;99889.13;5058087;28;20167;-88
2021/07/02 07:02:00;;;;;;;29.33;18.88;;;;;;;19.24;66.48;99898.25;5076452;28;20571;-89
2021/07/02 07:04:35;;;;;;;24.10;18.60;;;;;;;19.27;66.07;99881.13;5078594;28;20055;-90
2021/07/02 07:07:03;;;;;;;23.05;16.77;;;;;;;19.30;65.96;99893.34;5078681;28;20386;-86
2021/07/02 07:09:31;;;;;;;24.63;18.02;;;;;;;19.32;65.62;99894.06;5074839;28;20080;-89
2021/07/02 07:11:59;;;;;;;27.48;18.98;;;;;;;19.31;65.31;99893.19;5058632;28;20403;-87
2021/07/02 07:14:26;;;;;;;24.50;18.80;;;;;;;19.30;65.11;99899.53;5057013;28;20063;-87
2021/07/02 07:16:52;;;;;;;27.67;19.02;;;;;;;19.29;65.58;99903.19;5058822;28;20107;-87
2021/07/02 07:19:24;;;;;;;24.75;18.70;;;;;;;19.30;65.78;99901.34;5057547;28;20060;-87
2021/07/02 07:21:50;;;;;;;25.98;18.30;;;;;;;19.30;65.60;99899.53;5057193;28;20516;-89
2021/07/02 07:24:17;;;;;;;22.15;17.23;;;;;;;19.32;65.64;99902.88;5058071;28;20044;-89
2021/07/02 07:26:43;;;;;;;30.08;18.40;;;;;;;19.35;65.71;99905.28;5057154;28;20065;-89
2021/07/02 07:29:10;;;;;;;26.48;18.73;;;;;;;19.38;65.36;99909.50;5058296;28;20075;-89
2021/07/02 07:31:37;;;;;;;24.95;19.40;;;;;;;19.40;65.22;99904.88;5077751;28;20057;-88
2021/07/02 07:34:04;;;;;;;29.35;19.20;;;;;;;19.44;65.18;99916.09;5078060;28;20056;-89
2021/07/02 07:36:32;;;;;;;26.83;18.25;;;;;;;19.46;65.46;99903.44;5076689;28;20048;-89
2021/07/02 07:38:59;;;;;;;26.08;17.35;;;;;;;19.49;65.13;99909.34;5078287;28;20048;-88
2021/07/02 07:41:25;;;;;;;26.05;17.45;;;;;;;19.54;65.12;99916.91;5060602;28;20068;-88
2021/07/02 07:43:56;;;;;;;25.95;17.25;;;;;;;19.58;64.78;99920.16;5056595;28;20060;-86
2021/07/02 07:46:24;;;;;;;22.83;16.20;;;;;;;19.60;65.12;99924.38;5058202;28;20053;-86
2021/07/02 07:48:51;;;;;;;24.23;16.30;;;;;;;19.62;64.75;99927.72;5066809;28;20072;-86
2021/07/02 07:51:31;;;;;;;23.38;16.40;;;;;;;19.63;64.40;99928.59;5076889;28;20044;-87
2021/07/02 07:53:57;;;;;;;25.40;16.92;;;;;;;19.61;64.27;99931.38;5076833;28;20532;-86
2021/07/02 07:56:26;;;;;;;24.20;17.00;;;;;;;19.59;64.06;99928.00;5076836;28;20448;-89
2021/07/02 07:58:53;;;;;;;23.50;15.75;;;;;;;19.56;64.20;99936.31;5076269;28;20501;-88
2021/07/02 08:01:20;;;;;;;19.08;12.82;;;;;;;19.53;63.79;99932.13;5076809;28;20052;-87
2021/07/02 08:03:47;;;;;;;16.38;12.18;;;;;;;19.51;63.49;99941.25;5077625;28;20094;-89
2021/07/02 08:06:13;;;;;;;17.52;11.18;;;;;;;19.48;63.64;99941.53;5073460;28;20059;-89
2021/07/02 08:08:40;;;;;;;18.10;11.65;;;;;;;19.49;64.02;99943.19;5065276;28;20384;-87
2021/07/02 08:11:07;;;;;;;18.35;11.23;;;;;;;19.50;64.59;99944.88;5053594;28;20075;-87
2021/07/02 08:13:33;;;;;;;20.42;11.70;;;;;;;19.52;64.66;99946.41;5053845;28;20052;-87
2021/07/02 08:16:00;;;;;;;18.52;12.05;;;;;;;19.57;64.50;99935.31;5053531;28;20052;-86
2021/07/02 08:18:28;;;;;;;16.52;11.25;;;;;;;19.63;64.04;99937.41;5059070;28;20044;-87
2021/07/02 08:20:54;;;;;;;17.67;11.70;;;;;;;19.68;63.82;99937.00;5074507;28;20060;-87
2021/07/02 08:23:21;;;;;;;14.88;10.55;;;;;;;19.75;64.32;99939.94;5073366;28;20048;-87
2021/07/02 08:25:47;;;;;;;18.75;10.75;;;;;;;19.81;64.15;99933.19;5074108;28;20044;-87
2021/07/02 08:31:19;;;;;;;21.13;9.95;;;;;;;19.98;63.99;99936.94;5012087;28;20054;-88
2021/07/02 08:33:46;;;;;;;15.82;9.32;;;;;;;20.02;63.77;99936.56;5011863;28;20529;-87
2021/07/02 08:36:12;;;;;;;18.00;9.80;;;;;;;20.10;63.53;99938.47;5031965;28;20059;-88
2021/07/02 08:38:39;;;;;;;16.15;8.93;;;;;;;20.16;63.08;99937.06;5060839;28;20040;-88
2021/07/02 08:41:11;;;;;;;11.82;8.25;;;;;;;20.22;62.52;99935.66;5073988;28;20090;-88
2021/07/02 08:43:42;;;;;;;14.18;8.32;;;;;;;20.28;62.06;99935.06;5074318;28;20066;-87
2021/07/02 08:46:12;;;;;;;13.85;7.72;;;;;;;20.33;61.19;99937.28;5073828;28;20559;-86
2021/07/02 08:48:40;;;;;;;12.02;8.68;;;;;;;20.35;61.84;99951.34;5066666;28;20080;-85
2021/07/02 08:51:08;;;;;;;11.40;8.73;;;;;;;20.37;61.85;99939.50;5052853;28;20410;-85
2021/07/02 08:53:36;;;;;;;15.02;9.13;;;;;;;20.39;61.81;99937.53;5054421;28;20114;-86
2021/07/02 08:56:04;;;;;;;11.57;8.57;;;;;;;20.43;62.53;99944.28;5053871;28;20437;-87
2021/07/02 08:58:31;;;;;;;13.57;8.23;;;;;;;20.48;62.75;99954.53;5057859;28;20049;-87
2021/07/02 09:00:58;;;;;;;14.25;9.43;;;;;;;20.54;62.48;99951.28;5072644;28;20525;-87
2021/07/02 09:03:30;;;;;;;15.65;8.55;;;;;;;20.61;61.52;99953.34;5052681;28;20049;-87
2021/07/02 09:06:15;;;;;;;17.85;9.82;;;;;;;20.62;61.07;99947.00;5052180;28;20048;-88
2021/07/02 09:09:04;;;;;;;15.80;8.70;;;;;;;20.66;60.84;99953.72;5060260;28;20051;-87
2021/07/02 09:11:32;;;;;;;13.95;8.35;;;;;;;20.71;61.02;99951.47;5073426;28;20048;-87
2021/07/02 09:13:59;;;;;;;15.77;8.70;;;;;;;20.72;60.38;99953.16;5073632;28;20051;-87
2021/07/02 09:16:37;;;;;;;15.75;9.77;;;;;;;20.68;59.58;99955.25;5073424;28;20094;-87
2021/07/02 09:19:25;;;;;;;17.52;9.52;;;;;;;20.64;59.97;99959.22;5063509;28;20044;-88
2021/07/02 09:21:51;;;;;;;14.40;9.38;;;;;;;20.67;60.26;99955.44;5052442;28;20053;-89
2021/07/02 09:24:44;;;;;;;12.85;8.95;;;;;;;20.61;60.13;99950.66;5052016;28;20067;-87
2021/07/02 09:27:41;;;;;;;12.65;9.07;;;;;;;20.61;60.52;99945.31;5064824;28;20056;-87
2021/07/02 09:30:12;;;;;;;13.18;8.57;;;;;;;20.69;61.12;99958.78;5065124;28;20048;-86
2021/07/02 09:32:52;;;;;;;16.60;9.98;;;;;;;20.70;61.50;99952.44;5072941;28;20498;-87
2021/07/02 09:35:23;;;;;;;15.30;9.13;;;;;;;20.79;61.71;99945.38;5072080;28;20063;-88
2021/07/02 09:37:52;;;;;;;15.75;10.23;;;;;;;20.90;61.39;99950.53;5053707;28;20399;-87
2021/07/02 09:40:23;;;;;;;16.95;9.68;;;;;;;21.01;60.50;99965.53;5053077;28;20049;-85
2021/07/02 09:43:03;;;;;;;15.43;9.25;;;;;;;21.06;59.10;99957.91;5051876;28;20099;-86
2021/07/02 09:45:33;;;;;;;16.48;10.15;;;;;;;21.14;58.46;99957.16;5051676;28;20056;-85
2021/07/02 09:48:07;;;;;;;12.63;9.00;;;;;;;21.12;58.77;99967.16;5071273;28;20044;-86
2021/07/02 09:50:38;;;;;;;13.85;9.38;;;;;;;21.11;58.38;99967.31;5073304;28;20059;-85
2021/07/02 09:53:09;;;;;;;12.23;9.13;;;;;;;21.06;58.73;99965.09;5071440;28;20105;-86
2021/07/02 09:55:48;;;;;;;12.88;8.85;;;;;;;21.00;58.63;99971.06;5072492;28;20079;-86
2021/07/02 09:58:16;;;;;;;14.70;9.15;;;;;;;20.98;58.84;99967.69;5051546;28;20487;-87
2021/07/02 10:00:48;;;;;;;13.07;9.70;;;;;;;20.91;57.99;99970.09;5051454;28;20057;-87
2021/07/02 10:03:16;;;;;;;10.98;7.85;;;;;;;20.89;58.33;99977.47;5052967;28;20052;-86
2021/07/02 10:05:48;;;;;;;12.27;8.02;;;;;;;20.85;58.70;99979.53;5052453;28;20049;-87
2021/07/02 10:08:17;;;;;;;13.48;6.95;;;;;;;20.84;59.54;99980.53;5051692;28;20111;-87
2021/07/02 10:10:44;;;;;;;15.45;7.97;;;;;;;20.86;59.79;99983.88;5052389;28;20064;-86
2021/07/02 10:13:11;;;;;;;13.40;8.95;;;;;;;20.90;59.30;99989.84;5051037;28;20045;-87
2021/07/02 10:15:40;;;;;;;13.15;8.27;;;;;;;20.94;59.62;99983.19;5051336;28;20734;-87
2021/07/02 10:18:11;;;;;;;14.85;8.55;;;;;;;21.02;58.91;99985.13;5070887;28;20045;-87
2021/07/02 10:20:40;;;;;;;15.85;7.95;;;;;;;21.12;59.83;99985.88;5071190;28;20052;-89
2021/07/02 10:23:09;;;;;;;13.02;9.13;;;;;;;21.22;59.27;99985.81;5070849;28;20048;-89
2021/07/02 10:25:36;;;;;;;13.75;9.30;;;;;;;21.30;58.98;99987.75;5059789;28;20060;-87
2021/07/02 10:28:04;;;;;;;12.32;8.65;;;;;;;21.38;58.83;99984.31;5050293;28;20056;-87
2021/07/02 10:30:30;;;;;;;14.00;8.60;;;;;;;21.44;59.19;99984.53;5052058;28;20494;-87
2021/07/02 10:32:59;;;;;;;15.55;9.18;;;;;;;21.53;59.44;99985.44;5050987;28;20076;-86
2021/07/02 10:35:29;;;;;;;11.40;9.15;;;;;;;21.62;58.98;99991.72;5060459;28;20064;-89
2021/07/02 10:37:58;;;;;;;14.05;8.68;;;;;;;21.71;58.68;99996.16;5070560;28;20060;-87
2021/07/02 10:40:34;;;;;;;12.15;7.63;;;;;;;21.76;57.01;99985.03;5072003;28;20059;-86
2021/07/02 10:43:08;;;;;;;15.02;8.55;;;;;;;21.80;57.19;99994.44;5070773;28;20413;-86
2021/07/02 10:45:37;;;;;;;11.50;8.38;;;;;;;21.83;57.51;99994.09;5058745;28;20430;-87
2021/07/02 10:48:04;;;;;;;13.35;7.95;;;;;;;21.85;57.36;99997.47;5050685;28;20052;-87
2021/07/02 10:50:40;;;;;;;14.93;8.63;;;;;;;21.84;57.17;100001.16;5063667;28;20052;-87
2021/07/02 10:53:24;;;;;;;16.17;8.43;;;;;;;21.91;57.36;100000.53;5070683;28;20065;-87
2021/07/02 10:55:51;;;;;;;13.70;7.47;;;;;;;22.08;58.94;99994.28;5070209;28;20055;-87
2021/07/02 10:58:20;;;;;;;11.73;7.47;;;;;;;22.28;58.67;99995.91;5071626;28;20448;-87
2021/07/02 11:01:10;;;;;;;12.45;7.90;;;;;;;22.48;57.86;99997.38;5058202;28;20064;-87
2021/07/02 11:03:38;;;;;;;10.45;7.97;;;;;;;22.74;56.85;100001.03;5051487;28;20506;-87
2021/07/02 11:06:39;;;;;;;11.60;7.65;;;;;;;22.88;55.81;99999.59;5051567;28;20517;-87
2021/07/02 11:09:07;;;;;;;10.23;6.63;;;;;;;23.07;55.24;100005.69;5051617;28;20064;-87
2021/07/02 11:12:09;;;;;;;10.63;7.63;;;;;;;23.08;54.42;99999.28;5070194;28;20044;-87
2021/07/02 11:14:51;;;;;;;11.25;7.93;;;;;;;23.11;53.69;100007.03;5071197;28;20490;-87
2021/07/02 11:17:29;;;;;;;10.60;7.22;;;;;;;23.07;53.81;100008.38;5071860;28;20049;-89
2021/07/02 11:20:08;;;;;;;12.52;8.15;;;;;;;22.99;53.36;100006.50;5065694;28;20126;-89
2021/07/02 11:22:44;;;;;;;13.63;8.98;;;;;;;22.90;52.92;100005.63;5050537;28;20049;-88
2021/07/02 11:28:01;;;;;;;11.38;7.93;;;;;;;22.69;53.56;100006.06;5051771;28;20118;-89
2021/07/02 11:30:39;;;;;;;12.17;8.37;;;;;;;22.57;53.04;100013.56;5059697;28;20049;-89
2021/07/02 11:33:09;;;;;;;14.15;9.18;;;;;;;22.47;53.29;100021.69;5072089;28;20049;-89